sensor_id;sensor_type;location;lat;lon;timestamp;P1;durP1;ratioP1;P2;durP2;ratioP2
54921;SDS011;40824;45.116;21.296;2022-12-24T00:00:22;27.80;;;18.80;;
54921;SDS011;40824;45.116;21.296;2022-12-24T00:02:51;27.33;;;18.08;;
54921;SDS011;40824;45.116;21.296;2022-12-24T00:05:18;27.02;;;19.42;;
54921;SDS011;40824;45.116;21.296;2022-12-24T00:07:44;27.08;;;18.98;;
54921;SDS011;40824;45.116;21.296;2022-12-24T00:10:10;25.45;;;18.85;;
54921;SDS011;40824;45.116;21.296;2022-12-24T00:12:36;26.67;;;18.17;;
54921;SDS011;40824;45.116;21.296;2022-12-24T00:15:03;24.55;;;18.38;;
54921;SDS011;40824;45.116;21.296;2022-12-24T00:17:29;24.23;;;18.13;;
54921;SDS011;40824;45.116;21.296;2022-12-24T00:19:55;25.80;;;18.50;;
54921;SDS011;40824;45.116;21.296;2022-12-24T00:22:21;25.65;;;17.02;;
54921;SDS011;40824;45.116;21.296;2022-12-24T00:24:47;23.50;;;17.63;;
54921;SDS011;40824;45.116;21.296;2022-12-24T00:27:13;22.40;;;17.25;;
54921;SDS011;40824;45.116;21.296;2022-12-24T00:29:39;27.98;;;17.25;;
54921;SDS011;40824;45.116;21.296;2022-12-24T00:32:05;27.17;;;18.98;;
54921;SDS011;40824;45.116;21.296;2022-12-24T00:34:37;23.27;;;17.73;;
54921;SDS011;40824;45.116;21.296;2022-12-24T00:37:04;27.88;;;18.20;;
54921;SDS011;40824;45.116;21.296;2022-12-24T00:39:30;26.25;;;17.30;;
54921;SDS011;40824;45.116;21.296;2022-12-24T00:41:56;23.95;;;17.67;;
54921;SDS011;40824;45.116;21.296;2022-12-24T00:44:22;22.83;;;16.60;;
54921;SDS011;40824;45.116;21.296;2022-12-24T00:46:48;24.48;;;17.60;;
54921;SDS011;40824;45.116;21.296;2022-12-24T00:49:15;23.55;;;17.25;;
54921;SDS011;40824;45.116;21.296;2022-12-24T00:51:41;24.70;;;16.52;;
54921;SDS011;40824;45.116;21.296;2022-12-24T00:54:07;24.50;;;16.70;;
54921;SDS011;40824;45.116;21.296;2022-12-24T00:56:33;22.50;;;16.73;;
54921;SDS011;40824;45.116;21.296;2022-12-24T00:58:59;26.50;;;18.00;;
54921;SDS011;40824;45.116;21.296;2022-12-24T01:01:25;24.75;;;16.67;;
54921;SDS011;40824;45.116;21.296;2022-12-24T01:03:51;23.38;;;16.25;;
54921;SDS011;40824;45.116;21.296;2022-12-24T01:06:37;21.80;;;16.15;;
54921;SDS011;40824;45.116;21.296;2022-12-24T01:09:04;21.75;;;15.68;;
54921;SDS011;40824;45.116;21.296;2022-12-24T01:11:30;21.25;;;15.57;;
54921;SDS011;40824;45.116;21.296;2022-12-24T01:13:56;21.25;;;15.40;;
54921;SDS011;40824;45.116;21.296;2022-12-24T01:16:22;20.92;;;16.25;;
54921;SDS011;40824;45.116;21.296;2022-12-24T01:18:48;22.42;;;17.10;;
54921;SDS011;40824;45.116;21.296;2022-12-24T01:21:15;23.20;;;17.45;;
54921;SDS011;40824;45.116;21.296;2022-12-24T01:23:41;23.30;;;17.38;;
54921;SDS011;40824;45.116;21.296;2022-12-24T01:26:09;26.27;;;18.42;;
54921;SDS011;40824;45.116;21.296;2022-12-24T01:28:39;19.63;;;14.77;;
54921;SDS011;40824;45.116;21.296;2022-12-24T01:31:12;23.58;;;16.67;;
54921;SDS011;40824;45.116;21.296;2022-12-24T01:33:38;21.98;;;15.73;;
54921;SDS011;40824;45.116;21.296;2022-12-24T01:36:05;27.30;;;17.73;;
54921;SDS011;40824;45.116;21.296;2022-12-24T01:38:31;24.63;;;17.10;;
54921;SDS011;40824;45.116;21.296;2022-12-24T01:40:57;24.15;;;17.02;;
54921;SDS011;40824;45.116;21.296;2022-12-24T01:43:41;24.30;;;16.65;;
54921;SDS011;40824;45.116;21.296;2022-12-24T01:48:58;21.88;;;15.60;;
54921;SDS011;40824;45.116;21.296;2022-12-24T01:56:30;19.88;;;14.57;;
54921;SDS011;40824;45.116;21.296;2022-12-24T01:58:59;19.35;;;14.48;;
54921;SDS011;40824;45.116;21.296;2022-12-24T02:01:27;19.70;;;14.10;;
54921;SDS011;40824;45.116;21.296;2022-12-24T02:03:53;19.85;;;14.60;;
54921;SDS011;40824;45.116;21.296;2022-12-24T02:06:20;17.80;;;13.63;;
54921;SDS011;40824;45.116;21.296;2022-12-24T02:08:48;22.40;;;15.88;;
54921;SDS011;40824;45.116;21.296;2022-12-24T02:11:16;20.77;;;14.75;;
54921;SDS011;40824;45.116;21.296;2022-12-24T02:13:43;20.25;;;14.45;;
54921;SDS011;40824;45.116;21.296;2022-12-24T02:31:47;20.15;;;14.38;;
54921;SDS011;40824;45.116;21.296;2022-12-24T02:36:46;19.30;;;14.55;;
54921;SDS011;40824;45.116;21.296;2022-12-24T02:39:19;20.60;;;14.93;;
54921;SDS011;40824;45.116;21.296;2022-12-24T02:41:48;18.42;;;13.82;;
54921;SDS011;40824;45.116;21.296;2022-12-24T02:44:30;20.33;;;14.32;;
54921;SDS011;40824;45.116;21.296;2022-12-24T02:46:58;20.85;;;14.68;;
54921;SDS011;40824;45.116;21.296;2022-12-24T02:49:25;19.17;;;14.88;;
54921;SDS011;40824;45.116;21.296;2022-12-24T02:51:51;23.40;;;15.13;;
54921;SDS011;40824;45.116;21.296;2022-12-24T02:54:17;20.17;;;14.73;;
54921;SDS011;40824;45.116;21.296;2022-12-24T03:09:54;21.63;;;14.45;;
54921;SDS011;40824;45.116;21.296;2022-12-24T03:12:29;22.10;;;14.48;;
54921;SDS011;40824;45.116;21.296;2022-12-24T03:14:57;24.08;;;15.50;;
54921;SDS011;40824;45.116;21.296;2022-12-24T03:17:24;21.20;;;15.55;;
54921;SDS011;40824;45.116;21.296;2022-12-24T03:19:50;21.48;;;15.02;;
54921;SDS011;40824;45.116;21.296;2022-12-24T03:22:17;23.83;;;17.05;;
54921;SDS011;40824;45.116;21.296;2022-12-24T03:24:43;19.80;;;14.75;;
54921;SDS011;40824;45.116;21.296;2022-12-24T03:27:10;20.63;;;15.13;;
54921;SDS011;40824;45.116;21.296;2022-12-24T03:29:37;23.85;;;16.15;;
54921;SDS011;40824;45.116;21.296;2022-12-24T03:32:04;23.52;;;15.65;;
54921;SDS011;40824;45.116;21.296;2022-12-24T03:34:30;19.70;;;14.25;;
54921;SDS011;40824;45.116;21.296;2022-12-24T03:36:56;19.55;;;14.68;;
54921;SDS011;40824;45.116;21.296;2022-12-24T03:39:22;20.40;;;15.10;;
54921;SDS011;40824;45.116;21.296;2022-12-24T03:41:48;20.48;;;14.45;;
54921;SDS011;40824;45.116;21.296;2022-12-24T03:44:14;24.23;;;16.67;;
54921;SDS011;40824;45.116;21.296;2022-12-24T03:46:40;22.40;;;16.02;;
54921;SDS011;40824;45.116;21.296;2022-12-24T03:49:06;24.02;;;16.40;;
54921;SDS011;40824;45.116;21.296;2022-12-24T03:51:32;21.25;;;16.58;;
54921;SDS011;40824;45.116;21.296;2022-12-24T03:53:58;20.27;;;15.38;;
54921;SDS011;40824;45.116;21.296;2022-12-24T03:56:25;21.73;;;15.98;;
54921;SDS011;40824;45.116;21.296;2022-12-24T03:58:51;21.15;;;15.63;;
54921;SDS011;40824;45.116;21.296;2022-12-24T04:01:17;22.02;;;14.50;;
54921;SDS011;40824;45.116;21.296;2022-12-24T04:03:44;25.80;;;17.27;;
54921;SDS011;40824;45.116;21.296;2022-12-24T04:06:11;22.20;;;16.13;;
54921;SDS011;40824;45.116;21.296;2022-12-24T04:08:38;22.38;;;16.30;;
54921;SDS011;40824;45.116;21.296;2022-12-24T04:11:04;22.05;;;15.68;;
54921;SDS011;40824;45.116;21.296;2022-12-24T04:13:30;21.33;;;16.45;;
54921;SDS011;40824;45.116;21.296;2022-12-24T04:15:57;23.55;;;15.88;;
54921;SDS011;40824;45.116;21.296;2022-12-24T04:18:23;21.00;;;16.23;;
54921;SDS011;40824;45.116;21.296;2022-12-24T04:20:49;20.55;;;15.77;;
54921;SDS011;40824;45.116;21.296;2022-12-24T04:23:15;22.65;;;16.88;;
54921;SDS011;40824;45.116;21.296;2022-12-24T04:25:41;22.15;;;17.02;;
54921;SDS011;40824;45.116;21.296;2022-12-24T04:28:07;21.10;;;16.02;;
54921;SDS011;40824;45.116;21.296;2022-12-24T04:30:34;23.13;;;16.48;;
54921;SDS011;40824;45.116;21.296;2022-12-24T04:33:00;27.60;;;17.13;;
54921;SDS011;40824;45.116;21.296;2022-12-24T04:35:26;23.27;;;16.40;;
54921;SDS011;40824;45.116;21.296;2022-12-24T04:37:52;27.35;;;17.80;;
54921;SDS011;40824;45.116;21.296;2022-12-24T04:40:18;27.15;;;18.17;;
54921;SDS011;40824;45.116;21.296;2022-12-24T04:42:44;23.25;;;15.82;;
54921;SDS011;40824;45.116;21.296;2022-12-24T04:45:10;24.83;;;17.73;;
54921;SDS011;40824;45.116;21.296;2022-12-24T04:47:36;25.45;;;18.50;;
54921;SDS011;40824;45.116;21.296;2022-12-24T04:50:02;23.77;;;18.95;;
54921;SDS011;40824;45.116;21.296;2022-12-24T04:52:28;26.25;;;18.48;;
54921;SDS011;40824;45.116;21.296;2022-12-24T04:54:55;26.80;;;19.23;;
54921;SDS011;40824;45.116;21.296;2022-12-24T04:57:21;27.70;;;20.02;;
54921;SDS011;40824;45.116;21.296;2022-12-24T04:59:47;27.58;;;21.23;;
54921;SDS011;40824;45.116;21.296;2022-12-24T05:02:16;31.13;;;20.85;;
54921;SDS011;40824;45.116;21.296;2022-12-24T05:04:42;29.05;;;19.25;;
54921;SDS011;40824;45.116;21.296;2022-12-24T05:07:08;31.02;;;20.27;;
54921;SDS011;40824;45.116;21.296;2022-12-24T05:09:34;27.20;;;18.65;;
54921;SDS011;40824;45.116;21.296;2022-12-24T05:12:00;27.92;;;19.58;;
54921;SDS011;40824;45.116;21.296;2022-12-24T05:14:26;26.05;;;19.35;;
54921;SDS011;40824;45.116;21.296;2022-12-24T05:16:54;23.40;;;18.30;;
54921;SDS011;40824;45.116;21.296;2022-12-24T05:19:21;26.10;;;18.08;;
54921;SDS011;40824;45.116;21.296;2022-12-24T05:21:47;24.30;;;17.65;;
54921;SDS011;40824;45.116;21.296;2022-12-24T05:24:33;26.05;;;17.85;;
54921;SDS011;40824;45.116;21.296;2022-12-24T05:27:18;27.23;;;18.45;;
54921;SDS011;40824;45.116;21.296;2022-12-24T05:29:44;21.95;;;17.25;;
54921;SDS011;40824;45.116;21.296;2022-12-24T05:32:10;26.40;;;19.17;;
54921;SDS011;40824;45.116;21.296;2022-12-24T05:34:36;23.25;;;17.23;;
54921;SDS011;40824;45.116;21.296;2022-12-24T05:37:02;21.95;;;17.27;;
54921;SDS011;40824;45.116;21.296;2022-12-24T05:39:29;23.05;;;17.00;;
54921;SDS011;40824;45.116;21.296;2022-12-24T05:41:55;23.58;;;17.08;;
54921;SDS011;40824;45.116;21.296;2022-12-24T05:44:21;23.73;;;16.65;;
54921;SDS011;40824;45.116;21.296;2022-12-24T05:46:47;23.52;;;16.75;;
54921;SDS011;40824;45.116;21.296;2022-12-24T05:49:13;24.60;;;17.02;;
54921;SDS011;40824;45.116;21.296;2022-12-24T05:51:39;24.08;;;17.00;;
54921;SDS011;40824;45.116;21.296;2022-12-24T05:54:05;24.92;;;18.27;;
54921;SDS011;40824;45.116;21.296;2022-12-24T05:56:32;24.55;;;17.90;;
54921;SDS011;40824;45.116;21.296;2022-12-24T05:58:58;21.38;;;17.13;;
54921;SDS011;40824;45.116;21.296;2022-12-24T06:01:24;25.73;;;18.27;;
54921;SDS011;40824;45.116;21.296;2022-12-24T06:03:51;21.98;;;17.38;;
54921;SDS011;40824;45.116;21.296;2022-12-24T06:06:18;26.35;;;17.92;;
54921;SDS011;40824;45.116;21.296;2022-12-24T06:08:45;28.73;;;17.30;;
54921;SDS011;40824;45.116;21.296;2022-12-24T06:11:12;21.15;;;15.95;;
54921;SDS011;40824;45.116;21.296;2022-12-24T06:13:38;25.98;;;17.85;;
54921;SDS011;40824;45.116;21.296;2022-12-24T06:16:05;26.52;;;19.02;;
54921;SDS011;40824;45.116;21.296;2022-12-24T06:18:32;24.77;;;17.52;;
54921;SDS011;40824;45.116;21.296;2022-12-24T06:20:59;24.23;;;17.23;;
54921;SDS011;40824;45.116;21.296;2022-12-24T06:23:27;28.17;;;17.50;;
54921;SDS011;40824;45.116;21.296;2022-12-24T06:25:54;26.92;;;19.55;;
54921;SDS011;40824;45.116;21.296;2022-12-24T06:28:20;32.28;;;20.15;;
54921;SDS011;40824;45.116;21.296;2022-12-24T06:30:47;28.95;;;19.30;;
54921;SDS011;40824;45.116;21.296;2022-12-24T06:33:13;27.00;;;17.65;;
54921;SDS011;40824;45.116;21.296;2022-12-24T06:35:40;32.60;;;18.80;;
54921;SDS011;40824;45.116;21.296;2022-12-24T06:38:06;33.65;;;20.45;;
54921;SDS011;40824;45.116;21.296;2022-12-24T06:40:32;27.25;;;18.67;;
54921;SDS011;40824;45.116;21.296;2022-12-24T06:42:58;26.27;;;18.23;;
54921;SDS011;40824;45.116;21.296;2022-12-24T06:45:24;26.13;;;18.27;;
54921;SDS011;40824;45.116;21.296;2022-12-24T06:47:50;22.23;;;18.15;;
54921;SDS011;40824;45.116;21.296;2022-12-24T06:50:16;27.42;;;18.42;;
54921;SDS011;40824;45.116;21.296;2022-12-24T06:52:42;25.98;;;17.23;;
54921;SDS011;40824;45.116;21.296;2022-12-24T06:55:08;22.92;;;17.23;;
54921;SDS011;40824;45.116;21.296;2022-12-24T06:57:34;25.23;;;17.73;;
54921;SDS011;40824;45.116;21.296;2022-12-24T07:00:00;24.33;;;17.33;;
54921;SDS011;40824;45.116;21.296;2022-12-24T07:02:26;21.73;;;15.70;;
54921;SDS011;40824;45.116;21.296;2022-12-24T07:04:52;21.85;;;15.35;;
54921;SDS011;40824;45.116;21.296;2022-12-24T07:07:19;23.20;;;18.10;;
54921;SDS011;40824;45.116;21.296;2022-12-24T07:09:45;24.73;;;16.75;;
54921;SDS011;40824;45.116;21.296;2022-12-24T07:12:11;25.00;;;18.25;;
54921;SDS011;40824;45.116;21.296;2022-12-24T07:14:37;26.85;;;19.52;;
54921;SDS011;40824;45.116;21.296;2022-12-24T07:17:03;24.15;;;17.33;;
54921;SDS011;40824;45.116;21.296;2022-12-24T07:19:29;27.27;;;18.02;;
54921;SDS011;40824;45.116;21.296;2022-12-24T07:21:55;31.35;;;19.58;;
54921;SDS011;40824;45.116;21.296;2022-12-24T07:24:22;28.60;;;18.30;;
54921;SDS011;40824;45.116;21.296;2022-12-24T07:26:53;23.95;;;19.05;;
54921;SDS011;40824;45.116;21.296;2022-12-24T07:29:20;29.58;;;19.38;;
54921;SDS011;40824;45.116;21.296;2022-12-24T07:31:46;27.02;;;19.83;;
54921;SDS011;40824;45.116;21.296;2022-12-24T07:34:12;27.80;;;20.08;;
54921;SDS011;40824;45.116;21.296;2022-12-24T07:36:38;33.15;;;20.83;;
54921;SDS011;40824;45.116;21.296;2022-12-24T07:39:05;31.27;;;21.63;;
54921;SDS011;40824;45.116;21.296;2022-12-24T07:41:31;30.60;;;21.92;;
54921;SDS011;40824;45.116;21.296;2022-12-24T07:43:59;31.17;;;23.13;;
54921;SDS011;40824;45.116;21.296;2022-12-24T07:46:26;30.10;;;22.10;;
54921;SDS011;40824;45.116;21.296;2022-12-24T07:48:52;31.90;;;21.95;;
54921;SDS011;40824;45.116;21.296;2022-12-24T07:51:20;32.70;;;22.20;;
54921;SDS011;40824;45.116;21.296;2022-12-24T07:53:49;31.25;;;23.52;;
54921;SDS011;40824;45.116;21.296;2022-12-24T07:56:15;37.00;;;23.35;;
54921;SDS011;40824;45.116;21.296;2022-12-24T07:58:41;35.22;;;23.73;;
54921;SDS011;40824;45.116;21.296;2022-12-24T08:01:11;32.88;;;22.90;;
54921;SDS011;40824;45.116;21.296;2022-12-24T08:03:37;32.28;;;24.42;;
54921;SDS011;40824;45.116;21.296;2022-12-24T08:06:04;37.25;;;24.50;;
54921;SDS011;40824;45.116;21.296;2022-12-24T08:08:36;32.38;;;23.42;;
54921;SDS011;40824;45.116;21.296;2022-12-24T08:11:03;33.05;;;22.55;;
54921;SDS011;40824;45.116;21.296;2022-12-24T08:13:32;38.15;;;24.17;;
54921;SDS011;40824;45.116;21.296;2022-12-24T08:15:59;35.35;;;24.58;;
54921;SDS011;40824;45.116;21.296;2022-12-24T08:18:33;35.33;;;26.13;;
54921;SDS011;40824;45.116;21.296;2022-12-24T08:21:08;33.70;;;25.48;;
54921;SDS011;40824;45.116;21.296;2022-12-24T08:23:43;32.13;;;23.30;;
54921;SDS011;40824;45.116;21.296;2022-12-24T08:29:14;38.45;;;24.70;;
54921;SDS011;40824;45.116;21.296;2022-12-24T08:31:43;34.85;;;25.00;;
54921;SDS011;40824;45.116;21.296;2022-12-24T08:34:14;32.65;;;24.00;;
54921;SDS011;40824;45.116;21.296;2022-12-24T08:36:53;32.88;;;23.85;;
54921;SDS011;40824;45.116;21.296;2022-12-24T08:39:19;30.98;;;22.23;;
54921;SDS011;40824;45.116;21.296;2022-12-24T08:41:45;34.97;;;23.73;;
54921;SDS011;40824;45.116;21.296;2022-12-24T08:44:12;35.45;;;24.33;;
54921;SDS011;40824;45.116;21.296;2022-12-24T08:46:38;35.80;;;25.20;;
54921;SDS011;40824;45.116;21.296;2022-12-24T08:49:04;40.65;;;25.45;;
54921;SDS011;40824;45.116;21.296;2022-12-24T08:51:30;38.03;;;26.25;;
54921;SDS011;40824;45.116;21.296;2022-12-24T08:53:56;36.22;;;25.73;;
54921;SDS011;40824;45.116;21.296;2022-12-24T08:56:22;37.45;;;24.58;;
54921;SDS011;40824;45.116;21.296;2022-12-24T08:58:49;32.13;;;23.40;;
54921;SDS011;40824;45.116;21.296;2022-12-24T09:01:16;32.35;;;23.40;;
54921;SDS011;40824;45.116;21.296;2022-12-24T09:03:42;32.67;;;24.40;;
54921;SDS011;40824;45.116;21.296;2022-12-24T09:06:09;34.05;;;24.63;;
54921;SDS011;40824;45.116;21.296;2022-12-24T09:08:35;30.25;;;23.80;;
54921;SDS011;40824;45.116;21.296;2022-12-24T09:11:05;31.55;;;23.30;;
54921;SDS011;40824;45.116;21.296;2022-12-24T09:13:31;30.15;;;21.35;;
54921;SDS011;40824;45.116;21.296;2022-12-24T09:15:58;31.33;;;22.65;;
54921;SDS011;40824;45.116;21.296;2022-12-24T09:18:24;31.58;;;20.48;;
54921;SDS011;40824;45.116;21.296;2022-12-24T09:20:50;34.42;;;22.92;;
54921;SDS011;40824;45.116;21.296;2022-12-24T09:23:16;35.30;;;23.05;;
54921;SDS011;40824;45.116;21.296;2022-12-24T09:25:42;33.67;;;25.02;;
54921;SDS011;40824;45.116;21.296;2022-12-24T09:28:09;36.60;;;24.45;;
54921;SDS011;40824;45.116;21.296;2022-12-24T09:30:35;39.47;;;25.02;;
54921;SDS011;40824;45.116;21.296;2022-12-24T09:33:01;35.28;;;24.98;;
54921;SDS011;40824;45.116;21.296;2022-12-24T09:35:28;38.55;;;24.67;;
54921;SDS011;40824;45.116;21.296;2022-12-24T09:37:54;33.05;;;22.58;;
54921;SDS011;40824;45.116;21.296;2022-12-24T09:40:28;31.95;;;24.55;;
54921;SDS011;40824;45.116;21.296;2022-12-24T09:42:57;36.28;;;27.17;;
54921;SDS011;40824;45.116;21.296;2022-12-24T09:47:53;36.78;;;23.40;;
54921;SDS011;40824;45.116;21.296;2022-12-24T09:50:23;29.00;;;21.17;;
54921;SDS011;40824;45.116;21.296;2022-12-24T09:52:51;33.55;;;22.98;;
54921;SDS011;40824;45.116;21.296;2022-12-24T09:57:47;31.25;;;24.95;;
54921;SDS011;40824;45.116;21.296;2022-12-24T10:00:16;40.15;;;25.60;;
54921;SDS011;40824;45.116;21.296;2022-12-24T10:02:44;32.83;;;22.05;;
54921;SDS011;40824;45.116;21.296;2022-12-24T10:05:12;28.38;;;22.63;;
54921;SDS011;40824;45.116;21.296;2022-12-24T10:10:16;31.40;;;21.52;;
54921;SDS011;40824;45.116;21.296;2022-12-24T10:22:59;24.95;;;18.45;;
54921;SDS011;40824;45.116;21.296;2022-12-24T10:27:57;26.98;;;19.48;;
54921;SDS011;40824;45.116;21.296;2022-12-24T10:30:25;26.70;;;21.17;;
54921;SDS011;40824;45.116;21.296;2022-12-24T10:32:52;25.15;;;18.30;;
54921;SDS011;40824;45.116;21.296;2022-12-24T10:35:24;28.27;;;20.33;;
54921;SDS011;40824;45.116;21.296;2022-12-24T10:37:51;27.98;;;20.92;;
54921;SDS011;40824;45.116;21.296;2022-12-24T10:42:56;26.40;;;20.20;;
54921;SDS011;40824;45.116;21.296;2022-12-24T10:45:23;28.13;;;20.17;;
54921;SDS011;40824;45.116;21.296;2022-12-24T10:47:51;26.83;;;20.13;;
54921;SDS011;40824;45.116;21.296;2022-12-24T10:50:30;29.40;;;20.85;;
54921;SDS011;40824;45.116;21.296;2022-12-24T10:55:47;33.97;;;22.02;;
54921;SDS011;40824;45.116;21.296;2022-12-24T10:58:17;27.63;;;20.50;;
54921;SDS011;40824;45.116;21.296;2022-12-24T11:00:53;25.77;;;17.55;;
54921;SDS011;40824;45.116;21.296;2022-12-24T11:06:10;24.33;;;18.13;;
54921;SDS011;40824;45.116;21.296;2022-12-24T11:08:35;25.60;;;17.58;;
54921;SDS011;40824;45.116;21.296;2022-12-24T11:11:12;37.13;;;28.23;;
54921;SDS011;40824;45.116;21.296;2022-12-24T11:18:35;25.05;;;17.52;;
54921;SDS011;40824;45.116;21.296;2022-12-24T11:21:03;26.75;;;19.42;;
54921;SDS011;40824;45.116;21.296;2022-12-24T11:23:30;30.88;;;21.35;;
54921;SDS011;40824;45.116;21.296;2022-12-24T11:25:56;24.73;;;19.30;;
54921;SDS011;40824;45.116;21.296;2022-12-24T11:28:29;27.27;;;20.08;;
54921;SDS011;40824;45.116;21.296;2022-12-24T11:31:00;27.90;;;21.38;;
54921;SDS011;40824;45.116;21.296;2022-12-24T11:33:27;27.73;;;21.00;;
54921;SDS011;40824;45.116;21.296;2022-12-24T11:36:03;32.08;;;22.23;;
54921;SDS011;40824;45.116;21.296;2022-12-24T11:38:32;31.27;;;21.65;;
54921;SDS011;40824;45.116;21.296;2022-12-24T11:41:00;28.90;;;20.17;;
54921;SDS011;40824;45.116;21.296;2022-12-24T11:43:26;28.42;;;20.80;;
54921;SDS011;40824;45.116;21.296;2022-12-24T11:48:43;31.40;;;22.45;;
54921;SDS011;40824;45.116;21.296;2022-12-24T11:51:20;27.98;;;20.85;;
54921;SDS011;40824;45.116;21.296;2022-12-24T11:58:55;33.20;;;25.83;;
54921;SDS011;40824;45.116;21.296;2022-12-24T12:03:50;42.90;;;29.52;;
54921;SDS011;40824;45.116;21.296;2022-12-24T12:06:28;33.15;;;25.02;;
54921;SDS011;40824;45.116;21.296;2022-12-24T12:08:58;34.97;;;24.00;;
54921;SDS011;40824;45.116;21.296;2022-12-24T12:11:25;30.45;;;22.67;;
54921;SDS011;40824;45.116;21.296;2022-12-24T12:13:52;30.65;;;21.55;;
54921;SDS011;40824;45.116;21.296;2022-12-24T12:16:30;25.98;;;20.58;;
54921;SDS011;40824;45.116;21.296;2022-12-24T12:19:18;30.63;;;21.73;;
54921;SDS011;40824;45.116;21.296;2022-12-24T12:21:45;29.17;;;19.13;;
54921;SDS011;40824;45.116;21.296;2022-12-24T12:24:19;26.30;;;20.15;;
54921;SDS011;40824;45.116;21.296;2022-12-24T12:26:47;27.35;;;20.67;;
54921;SDS011;40824;45.116;21.296;2022-12-24T12:36:55;29.20;;;19.25;;
54921;SDS011;40824;45.116;21.296;2022-12-24T12:39:22;28.58;;;21.77;;
54921;SDS011;40824;45.116;21.296;2022-12-24T12:47:21;26.08;;;18.58;;
54921;SDS011;40824;45.116;21.296;2022-12-24T12:52:34;24.90;;;20.00;;
54921;SDS011;40824;45.116;21.296;2022-12-24T12:55:24;32.92;;;22.00;;
54921;SDS011;40824;45.116;21.296;2022-12-24T12:57:52;29.40;;;21.02;;
54921;SDS011;40824;45.116;21.296;2022-12-24T13:00:19;26.08;;;19.25;;
54921;SDS011;40824;45.116;21.296;2022-12-24T13:21:02;29.50;;;23.23;;
54921;SDS011;40824;45.116;21.296;2022-12-24T13:23:28;45.50;;;32.20;;
54921;SDS011;40824;45.116;21.296;2022-12-24T13:25:56;38.58;;;25.85;;
54921;SDS011;40824;45.116;21.296;2022-12-24T13:36:11;31.90;;;23.65;;
54921;SDS011;40824;45.116;21.296;2022-12-24T13:49:14;36.88;;;28.15;;
54921;SDS011;40824;45.116;21.296;2022-12-24T13:51:42;40.58;;;28.77;;
54921;SDS011;40824;45.116;21.296;2022-12-24T13:54:09;41.55;;;29.73;;
54921;SDS011;40824;45.116;21.296;2022-12-24T13:56:37;44.08;;;31.42;;
54921;SDS011;40824;45.116;21.296;2022-12-24T13:59:10;50.83;;;32.85;;
54921;SDS011;40824;45.116;21.296;2022-12-24T14:01:38;54.58;;;34.97;;
54921;SDS011;40824;45.116;21.296;2022-12-24T14:04:07;52.10;;;34.00;;
54921;SDS011;40824;45.116;21.296;2022-12-24T14:06:34;47.97;;;32.15;;
54921;SDS011;40824;45.116;21.296;2022-12-24T14:12:12;45.35;;;33.17;;
54921;SDS011;40824;45.116;21.296;2022-12-24T14:14:28;39.75;;;30.55;;
54921;SDS011;40824;45.116;21.296;2022-12-24T14:17:20;44.55;;;30.27;;
54921;SDS011;40824;45.116;21.296;2022-12-24T14:19:41;40.83;;;27.70;;
54921;SDS011;40824;45.116;21.296;2022-12-24T14:30:03;35.20;;;25.02;;
54921;SDS011;40824;45.116;21.296;2022-12-24T14:32:34;32.58;;;25.15;;
54921;SDS011;40824;45.116;21.296;2022-12-24T14:35:20;36.20;;;26.98;;
54921;SDS011;40824;45.116;21.296;2022-12-24T14:37:51;45.42;;;27.85;;
54921;SDS011;40824;45.116;21.296;2022-12-24T14:40:21;35.50;;;28.08;;
54921;SDS011;40824;45.116;21.296;2022-12-24T14:45:26;36.90;;;28.55;;
54921;SDS011;40824;45.116;21.296;2022-12-24T14:55:46;36.53;;;26.88;;
54921;SDS011;40824;45.116;21.296;2022-12-24T15:00:42;36.30;;;27.10;;
54921;SDS011;40824;45.116;21.296;2022-12-24T15:03:12;40.95;;;26.70;;
54921;SDS011;40824;45.116;21.296;2022-12-24T15:05:38;45.20;;;29.05;;
54921;SDS011;40824;45.116;21.296;2022-12-24T15:08:08;42.33;;;29.27;;
54921;SDS011;40824;45.116;21.296;2022-12-24T15:10:35;41.40;;;28.70;;
54921;SDS011;40824;45.116;21.296;2022-12-24T15:13:25;37.03;;;27.75;;
54921;SDS011;40824;45.116;21.296;2022-12-24T15:15:49;35.25;;;27.63;;
54921;SDS011;40824;45.116;21.296;2022-12-24T15:18:17;37.72;;;26.80;;
54921;SDS011;40824;45.116;21.296;2022-12-24T15:20:45;34.38;;;27.10;;
54921;SDS011;40824;45.116;21.296;2022-12-24T15:23:18;40.40;;;29.23;;
54921;SDS011;40824;45.116;21.296;2022-12-24T15:25:45;40.13;;;30.05;;
54921;SDS011;40824;45.116;21.296;2022-12-24T15:28:18;49.67;;;34.53;;
54921;SDS011;40824;45.116;21.296;2022-12-24T15:30:44;48.90;;;35.90;;
54921;SDS011;40824;45.116;21.296;2022-12-24T15:33:10;47.63;;;36.78;;
54921;SDS011;40824;45.116;21.296;2022-12-24T15:38:30;53.22;;;37.83;;
54921;SDS011;40824;45.116;21.296;2022-12-24T15:40:58;50.08;;;35.63;;
54921;SDS011;40824;45.116;21.296;2022-12-24T15:43:25;48.58;;;35.25;;
54921;SDS011;40824;45.116;21.296;2022-12-24T15:45:52;39.53;;;31.35;;
54921;SDS011;40824;45.116;21.296;2022-12-24T15:48:27;37.70;;;29.45;;
54921;SDS011;40824;45.116;21.296;2022-12-24T15:54:23;40.72;;;30.25;;
54921;SDS011;40824;45.116;21.296;2022-12-24T16:00:19;37.50;;;29.85;;
54921;SDS011;40824;45.116;21.296;2022-12-24T16:08:35;38.20;;;28.77;;
54921;SDS011;40824;45.116;21.296;2022-12-24T16:16:33;39.47;;;27.83;;
54921;SDS011;40824;45.116;21.296;2022-12-24T16:19:03;41.78;;;28.92;;
54921;SDS011;40824;45.116;21.296;2022-12-24T16:21:38;37.67;;;28.85;;
54921;SDS011;40824;45.116;21.296;2022-12-24T16:24:06;39.95;;;31.23;;
54921;SDS011;40824;45.116;21.296;2022-12-24T16:26:33;45.30;;;31.38;;
54921;SDS011;40824;45.116;21.296;2022-12-24T16:28:59;42.60;;;34.42;;
54921;SDS011;40824;45.116;21.296;2022-12-24T16:31:38;48.80;;;33.33;;
54921;SDS011;40824;45.116;21.296;2022-12-24T16:34:09;43.80;;;33.97;;
54921;SDS011;40824;45.116;21.296;2022-12-24T16:36:39;50.60;;;35.38;;
54921;SDS011;40824;45.116;21.296;2022-12-24T16:39:09;50.00;;;33.38;;
54921;SDS011;40824;45.116;21.296;2022-12-24T16:41:47;47.00;;;33.83;;
54921;SDS011;40824;45.116;21.296;2022-12-24T16:44:31;52.97;;;39.15;;
54921;SDS011;40824;45.116;21.296;2022-12-24T16:46:58;53.35;;;39.70;;
54921;SDS011;40824;45.116;21.296;2022-12-24T16:49:24;59.88;;;40.38;;
54921;SDS011;40824;45.116;21.296;2022-12-24T16:51:50;50.92;;;37.05;;
54921;SDS011;40824;45.116;21.296;2022-12-24T16:54:17;52.60;;;38.97;;
54921;SDS011;40824;45.116;21.296;2022-12-24T16:56:44;58.00;;;39.58;;
54921;SDS011;40824;45.116;21.296;2022-12-24T16:59:17;52.88;;;38.65;;
54921;SDS011;40824;45.116;21.296;2022-12-24T17:01:45;53.20;;;37.75;;
54921;SDS011;40824;45.116;21.296;2022-12-24T17:04:12;70.15;;;50.20;;
54921;SDS011;40824;45.116;21.296;2022-12-24T17:06:38;53.97;;;39.47;;
54921;SDS011;40824;45.116;21.296;2022-12-24T17:09:05;60.03;;;38.53;;
54921;SDS011;40824;45.116;21.296;2022-12-24T17:11:31;57.25;;;40.33;;
54921;SDS011;40824;45.116;21.296;2022-12-24T17:13:57;58.90;;;41.75;;
54921;SDS011;40824;45.116;21.296;2022-12-24T17:16:23;53.92;;;42.13;;